sensor_id;sensor_type;location;lat;lon;timestamp;P1;durP1;ratioP1;P2;durP2;ratioP2
35552;SDS011;21656;46.054;13.614;2022-10-17T00:00:43;69.75;;;29.48;;
35552;SDS011;21656;46.054;13.614;2022-10-17T00:03:08;67.30;;;32.65;;
35552;SDS011;21656;46.054;13.614;2022-10-17T00:05:37;62.10;;;30.13;;
35552;SDS011;21656;46.054;13.614;2022-10-17T00:08:07;68.90;;;31.02;;
35552;SDS011;21656;46.054;13.614;2022-10-17T00:10:32;63.00;;;31.05;;
35552;SDS011;21656;46.054;13.614;2022-10-17T00:12:58;56.58;;;29.67;;
35552;SDS011;21656;46.054;13.614;2022-10-17T00:15:23;58.13;;;29.40;;
35552;SDS011;21656;46.054;13.614;2022-10-17T00:17:49;54.53;;;29.48;;
35552;SDS011;21656;46.054;13.614;2022-10-17T00:20:14;57.17;;;29.92;;
35552;SDS011;21656;46.054;13.614;2022-10-17T00:22:41;58.30;;;29.20;;
35552;SDS011;21656;46.054;13.614;2022-10-17T00:25:07;59.42;;;27.95;;
35552;SDS011;21656;46.054;13.614;2022-10-17T00:27:39;58.70;;;29.33;;
35552;SDS011;21656;46.054;13.614;2022-10-17T00:30:06;63.78;;;32.65;;
35552;SDS011;21656;46.054;13.614;2022-10-17T00:32:35;64.43;;;31.05;;
35552;SDS011;21656;46.054;13.614;2022-10-17T00:35:01;60.17;;;30.45;;
35552;SDS011;21656;46.054;13.614;2022-10-17T00:37:27;55.80;;;28.90;;
35552;SDS011;21656;46.054;13.614;2022-10-17T00:39:54;53.63;;;27.55;;
35552;SDS011;21656;46.054;13.614;2022-10-17T00:42:19;60.63;;;30.05;;
35552;SDS011;21656;46.054;13.614;2022-10-17T00:47:12;58.05;;;29.08;;
35552;SDS011;21656;46.054;13.614;2022-10-17T00:49:41;56.53;;;28.60;;
35552;SDS011;21656;46.054;13.614;2022-10-17T00:52:07;63.83;;;29.90;;
35552;SDS011;21656;46.054;13.614;2022-10-17T00:54:36;57.75;;;27.65;;
35552;SDS011;21656;46.054;13.614;2022-10-17T00:57:05;56.53;;;28.38;;
35552;SDS011;21656;46.054;13.614;2022-10-17T00:59:33;57.75;;;29.50;;
35552;SDS011;21656;46.054;13.614;2022-10-17T01:02:11;56.00;;;28.17;;
35552;SDS011;21656;46.054;13.614;2022-10-17T01:04:39;59.35;;;30.98;;
35552;SDS011;21656;46.054;13.614;2022-10-17T01:07:07;55.65;;;28.40;;
35552;SDS011;21656;46.054;13.614;2022-10-17T01:09:33;66.47;;;30.40;;
35552;SDS011;21656;46.054;13.614;2022-10-17T01:22:33;72.07;;;34.13;;
35552;SDS011;21656;46.054;13.614;2022-10-17T01:31:01;77.72;;;36.05;;
35552;SDS011;21656;46.054;13.614;2022-10-17T01:41:34;61.80;;;30.88;;
35552;SDS011;21656;46.054;13.614;2022-10-17T01:44:11;61.20;;;31.77;;
35552;SDS011;21656;46.054;13.614;2022-10-17T01:46:53;59.83;;;30.08;;
35552;SDS011;21656;46.054;13.614;2022-10-17T01:49:24;59.03;;;29.05;;
35552;SDS011;21656;46.054;13.614;2022-10-17T01:52:14;58.60;;;30.20;;
35552;SDS011;21656;46.054;13.614;2022-10-17T01:54:46;60.83;;;29.98;;
35552;SDS011;21656;46.054;13.614;2022-10-17T01:57:33;69.22;;;31.02;;
35552;SDS011;21656;46.054;13.614;2022-10-17T02:00:04;59.78;;;30.98;;
35552;SDS011;21656;46.054;13.614;2022-10-17T02:02:32;56.13;;;31.42;;
35552;SDS011;21656;46.054;13.614;2022-10-17T02:05:00;59.70;;;32.05;;
35552;SDS011;21656;46.054;13.614;2022-10-17T02:07:27;59.15;;;30.95;;
35552;SDS011;21656;46.054;13.614;2022-10-17T02:09:53;59.83;;;30.38;;
35552;SDS011;21656;46.054;13.614;2022-10-17T02:21:07;66.18;;;31.80;;
35552;SDS011;21656;46.054;13.614;2022-10-17T02:26:18;67.50;;;33.30;;
35552;SDS011;21656;46.054;13.614;2022-10-17T02:31:30;73.43;;;35.30;;
35552;SDS011;21656;46.054;13.614;2022-10-17T02:34:13;69.72;;;33.35;;
35552;SDS011;21656;46.054;13.614;2022-10-17T02:36:51;74.97;;;35.50;;
35552;SDS011;21656;46.054;13.614;2022-10-17T02:39:20;71.20;;;34.42;;
35552;SDS011;21656;46.054;13.614;2022-10-17T02:41:48;71.97;;;35.42;;
35552;SDS011;21656;46.054;13.614;2022-10-17T02:44:14;70.55;;;33.40;;
35552;SDS011;21656;46.054;13.614;2022-10-17T02:46:41;64.35;;;33.33;;
35552;SDS011;21656;46.054;13.614;2022-10-17T02:49:24;69.90;;;34.03;;
35552;SDS011;21656;46.054;13.614;2022-10-17T02:52:00;64.63;;;33.85;;
35552;SDS011;21656;46.054;13.614;2022-10-17T02:54:38;70.13;;;34.80;;
35552;SDS011;21656;46.054;13.614;2022-10-17T02:57:11;65.07;;;33.10;;
35552;SDS011;21656;46.054;13.614;2022-10-17T02:59:43;67.63;;;33.25;;
35552;SDS011;21656;46.054;13.614;2022-10-17T03:02:10;66.00;;;33.50;;
35552;SDS011;21656;46.054;13.614;2022-10-17T03:04:35;67.70;;;33.00;;
35552;SDS011;21656;46.054;13.614;2022-10-17T03:07:01;62.88;;;33.90;;
35552;SDS011;21656;46.054;13.614;2022-10-17T03:09:26;67.63;;;33.00;;
35552;SDS011;21656;46.054;13.614;2022-10-17T03:11:52;66.97;;;34.65;;
35552;SDS011;21656;46.054;13.614;2022-10-17T03:14:17;61.80;;;32.47;;
35552;SDS011;21656;46.054;13.614;2022-10-17T03:16:42;66.63;;;32.78;;
35552;SDS011;21656;46.054;13.614;2022-10-17T03:19:08;60.13;;;32.85;;
35552;SDS011;21656;46.054;13.614;2022-10-17T03:21:33;73.50;;;34.83;;
35552;SDS011;21656;46.054;13.614;2022-10-17T03:24:01;67.85;;;33.03;;
35552;SDS011;21656;46.054;13.614;2022-10-17T03:26:27;64.57;;;33.13;;
35552;SDS011;21656;46.054;13.614;2022-10-17T03:28:53;72.07;;;35.97;;
35552;SDS011;21656;46.054;13.614;2022-10-17T03:31:19;66.88;;;33.53;;
35552;SDS011;21656;46.054;13.614;2022-10-17T03:33:44;62.85;;;32.53;;
35552;SDS011;21656;46.054;13.614;2022-10-17T03:36:11;63.33;;;33.17;;
35552;SDS011;21656;46.054;13.614;2022-10-17T03:38:38;61.17;;;32.78;;
35552;SDS011;21656;46.054;13.614;2022-10-17T03:41:04;61.58;;;33.50;;
35552;SDS011;21656;46.054;13.614;2022-10-17T03:43:30;58.55;;;30.48;;
35552;SDS011;21656;46.054;13.614;2022-10-17T03:45:56;63.22;;;32.42;;
35552;SDS011;21656;46.054;13.614;2022-10-17T03:48:22;58.83;;;31.55;;
35552;SDS011;21656;46.054;13.614;2022-10-17T03:50:48;57.85;;;31.35;;
35552;SDS011;21656;46.054;13.614;2022-10-17T03:53:14;56.83;;;30.15;;
35552;SDS011;21656;46.054;13.614;2022-10-17T03:55:39;52.92;;;29.73;;
35552;SDS011;21656;46.054;13.614;2022-10-17T03:58:05;56.97;;;30.98;;
35552;SDS011;21656;46.054;13.614;2022-10-17T04:00:30;63.58;;;31.95;;
35552;SDS011;21656;46.054;13.614;2022-10-17T04:02:56;60.05;;;31.55;;
35552;SDS011;21656;46.054;13.614;2022-10-17T04:05:22;57.92;;;30.55;;
35552;SDS011;21656;46.054;13.614;2022-10-17T04:07:48;57.30;;;30.10;;
35552;SDS011;21656;46.054;13.614;2022-10-17T04:10:13;53.38;;;29.73;;
35552;SDS011;21656;46.054;13.614;2022-10-17T04:12:39;59.05;;;30.27;;
35552;SDS011;21656;46.054;13.614;2022-10-17T04:15:04;57.92;;;29.85;;
35552;SDS011;21656;46.054;13.614;2022-10-17T04:17:30;54.75;;;30.13;;
35552;SDS011;21656;46.054;13.614;2022-10-17T04:19:56;54.30;;;30.30;;
35552;SDS011;21656;46.054;13.614;2022-10-17T04:22:21;53.88;;;29.58;;
35552;SDS011;21656;46.054;13.614;2022-10-17T04:24:47;54.50;;;30.25;;
35552;SDS011;21656;46.054;13.614;2022-10-17T04:27:12;50.45;;;29.75;;
35552;SDS011;21656;46.054;13.614;2022-10-17T04:29:37;51.38;;;28.15;;
35552;SDS011;21656;46.054;13.614;2022-10-17T04:32:03;50.35;;;28.08;;
35552;SDS011;21656;46.054;13.614;2022-10-17T04:34:28;53.40;;;29.77;;
35552;SDS011;21656;46.054;13.614;2022-10-17T04:36:54;60.50;;;30.98;;
35552;SDS011;21656;46.054;13.614;2022-10-17T04:39:19;51.30;;;28.17;;
35552;SDS011;21656;46.054;13.614;2022-10-17T04:41:45;51.47;;;27.98;;
35552;SDS011;21656;46.054;13.614;2022-10-17T04:44:10;54.97;;;29.10;;
35552;SDS011;21656;46.054;13.614;2022-10-17T04:46:35;55.47;;;26.30;;
35552;SDS011;21656;46.054;13.614;2022-10-17T04:49:01;56.65;;;29.67;;
35552;SDS011;21656;46.054;13.614;2022-10-17T04:51:26;51.10;;;27.77;;
35552;SDS011;21656;46.054;13.614;2022-10-17T04:53:52;54.95;;;29.00;;
35552;SDS011;21656;46.054;13.614;2022-10-17T04:56:18;50.95;;;27.80;;
35552;SDS011;21656;46.054;13.614;2022-10-17T04:58:47;58.95;;;30.40;;
35552;SDS011;21656;46.054;13.614;2022-10-17T05:01:14;54.85;;;29.05;;
35552;SDS011;21656;46.054;13.614;2022-10-17T05:03:41;57.10;;;30.20;;
35552;SDS011;21656;46.054;13.614;2022-10-17T05:06:08;53.10;;;28.10;;
35552;SDS011;21656;46.054;13.614;2022-10-17T05:08:35;52.45;;;28.90;;
35552;SDS011;21656;46.054;13.614;2022-10-17T05:11:01;52.28;;;28.60;;
35552;SDS011;21656;46.054;13.614;2022-10-17T05:13:27;54.85;;;28.65;;
35552;SDS011;21656;46.054;13.614;2022-10-17T05:15:53;48.83;;;27.20;;
35552;SDS011;21656;46.054;13.614;2022-10-17T05:18:21;50.60;;;26.38;;
35552;SDS011;21656;46.054;13.614;2022-10-17T05:20:47;47.88;;;27.00;;
35552;SDS011;21656;46.054;13.614;2022-10-17T05:23:12;56.35;;;28.52;;
35552;SDS011;21656;46.054;13.614;2022-10-17T05:25:38;50.53;;;27.27;;
35552;SDS011;21656;46.054;13.614;2022-10-17T05:28:03;59.15;;;29.50;;
35552;SDS011;21656;46.054;13.614;2022-10-17T05:30:28;54.13;;;28.00;;
35552;SDS011;21656;46.054;13.614;2022-10-17T05:32:54;53.50;;;28.58;;
35552;SDS011;21656;46.054;13.614;2022-10-17T05:35:19;57.72;;;28.38;;
35552;SDS011;21656;46.054;13.614;2022-10-17T05:37:45;51.85;;;28.15;;
35552;SDS011;21656;46.054;13.614;2022-10-17T05:40:11;50.58;;;28.13;;
35552;SDS011;21656;46.054;13.614;2022-10-17T05:42:37;48.05;;;27.98;;
35552;SDS011;21656;46.054;13.614;2022-10-17T05:45:02;54.10;;;28.52;;
35552;SDS011;21656;46.054;13.614;2022-10-17T05:47:28;51.13;;;27.58;;
35552;SDS011;21656;46.054;13.614;2022-10-17T05:49:54;52.83;;;27.63;;
35552;SDS011;21656;46.054;13.614;2022-10-17T05:52:19;55.83;;;29.02;;
35552;SDS011;21656;46.054;13.614;2022-10-17T05:54:45;52.13;;;27.58;;
35552;SDS011;21656;46.054;13.614;2022-10-17T05:57:10;57.97;;;28.80;;
35552;SDS011;21656;46.054;13.614;2022-10-17T05:59:35;61.10;;;28.40;;
35552;SDS011;21656;46.054;13.614;2022-10-17T06:02:01;53.85;;;28.52;;
35552;SDS011;21656;46.054;13.614;2022-10-17T06:04:26;47.85;;;27.77;;
35552;SDS011;21656;46.054;13.614;2022-10-17T06:06:51;50.75;;;27.35;;
35552;SDS011;21656;46.054;13.614;2022-10-17T06:09:17;52.30;;;28.65;;
35552;SDS011;21656;46.054;13.614;2022-10-17T06:11:43;52.40;;;28.98;;
35552;SDS011;21656;46.054;13.614;2022-10-17T06:14:08;53.28;;;27.73;;
35552;SDS011;21656;46.054;13.614;2022-10-17T06:16:34;57.63;;;28.27;;
35552;SDS011;21656;46.054;13.614;2022-10-17T06:18:59;55.33;;;26.85;;
35552;SDS011;21656;46.054;13.614;2022-10-17T06:21:25;50.40;;;27.38;;
35552;SDS011;21656;46.054;13.614;2022-10-17T06:23:51;48.05;;;26.85;;
35552;SDS011;21656;46.054;13.614;2022-10-17T06:26:17;47.47;;;26.08;;
35552;SDS011;21656;46.054;13.614;2022-10-17T06:28:42;49.08;;;26.75;;
35552;SDS011;21656;46.054;13.614;2022-10-17T06:31:12;48.15;;;27.10;;
35552;SDS011;21656;46.054;13.614;2022-10-17T06:33:39;45.40;;;27.00;;
35552;SDS011;21656;46.054;13.614;2022-10-17T06:36:06;54.08;;;27.50;;
35552;SDS011;21656;46.054;13.614;2022-10-17T06:38:34;47.30;;;27.08;;
35552;SDS011;21656;46.054;13.614;2022-10-17T06:43:28;47.30;;;26.58;;
35552;SDS011;21656;46.054;13.614;2022-10-17T06:45:54;49.85;;;26.45;;
35552;SDS011;21656;46.054;13.614;2022-10-17T06:48:19;47.67;;;26.55;;
35552;SDS011;21656;46.054;13.614;2022-10-17T06:50:45;50.10;;;26.88;;
35552;SDS011;21656;46.054;13.614;2022-10-17T06:53:10;46.78;;;26.33;;
35552;SDS011;21656;46.054;13.614;2022-10-17T06:55:35;46.15;;;26.25;;
35552;SDS011;21656;46.054;13.614;2022-10-17T06:58:01;46.80;;;25.58;;
35552;SDS011;21656;46.054;13.614;2022-10-17T07:00:26;48.17;;;26.75;;
35552;SDS011;21656;46.054;13.614;2022-10-17T07:02:52;44.50;;;25.20;;
35552;SDS011;21656;46.054;13.614;2022-10-17T07:05:17;45.13;;;25.23;;
35552;SDS011;21656;46.054;13.614;2022-10-17T07:07:43;36.13;;;22.30;;
35552;SDS011;21656;46.054;13.614;2022-10-17T07:10:09;40.67;;;23.35;;
35552;SDS011;21656;46.054;13.614;2022-10-17T07:12:35;39.42;;;21.95;;
35552;SDS011;21656;46.054;13.614;2022-10-17T07:15:00;40.80;;;23.65;;
35552;SDS011;21656;46.054;13.614;2022-10-17T07:17:28;38.50;;;22.52;;
35552;SDS011;21656;46.054;13.614;2022-10-17T07:19:54;39.45;;;23.33;;
35552;SDS011;21656;46.054;13.614;2022-10-17T07:22:19;37.53;;;23.75;;
35552;SDS011;21656;46.054;13.614;2022-10-17T07:24:44;40.40;;;23.15;;
35552;SDS011;21656;46.054;13.614;2022-10-17T07:27:10;41.70;;;23.15;;
35552;SDS011;21656;46.054;13.614;2022-10-17T07:29:37;40.90;;;24.45;;
35552;SDS011;21656;46.054;13.614;2022-10-17T07:32:02;43.30;;;23.23;;
35552;SDS011;21656;46.054;13.614;2022-10-17T07:34:30;41.22;;;23.38;;
35552;SDS011;21656;46.054;13.614;2022-10-17T07:36:57;38.70;;;22.45;;
35552;SDS011;21656;46.054;13.614;2022-10-17T07:39:22;41.88;;;23.33;;
35552;SDS011;21656;46.054;13.614;2022-10-17T07:41:48;44.65;;;24.45;;
35552;SDS011;21656;46.054;13.614;2022-10-17T07:44:14;43.00;;;22.75;;
35552;SDS011;21656;46.054;13.614;2022-10-17T07:46:40;41.65;;;23.15;;
35552;SDS011;21656;46.054;13.614;2022-10-17T07:49:05;41.25;;;23.08;;
35552;SDS011;21656;46.054;13.614;2022-10-17T07:51:31;41.88;;;22.23;;
35552;SDS011;21656;46.054;13.614;2022-10-17T07:53:56;40.72;;;23.67;;
35552;SDS011;21656;46.054;13.614;2022-10-17T07:56:21;39.58;;;23.08;;
35552;SDS011;21656;46.054;13.614;2022-10-17T07:58:48;41.08;;;22.48;;
35552;SDS011;21656;46.054;13.614;2022-10-17T08:01:15;38.58;;;22.52;;
35552;SDS011;21656;46.054;13.614;2022-10-17T08:03:44;46.22;;;24.52;;
35552;SDS011;21656;46.054;13.614;2022-10-17T08:06:12;40.97;;;21.88;;
35552;SDS011;21656;46.054;13.614;2022-10-17T08:08:38;38.00;;;23.80;;
35552;SDS011;21656;46.054;13.614;2022-10-17T08:11:05;37.55;;;21.27;;
35552;SDS011;21656;46.054;13.614;2022-10-17T08:13:33;35.08;;;21.58;;
35552;SDS011;21656;46.054;13.614;2022-10-17T08:16:00;37.08;;;21.67;;
35552;SDS011;21656;46.054;13.614;2022-10-17T08:18:27;37.67;;;22.23;;
35552;SDS011;21656;46.054;13.614;2022-10-17T08:20:52;38.65;;;21.02;;
35552;SDS011;21656;46.054;13.614;2022-10-17T08:23:18;46.03;;;21.08;;
35552;SDS011;21656;46.054;13.614;2022-10-17T08:25:43;40.40;;;21.63;;
35552;SDS011;21656;46.054;13.614;2022-10-17T08:28:09;40.22;;;21.83;;
35552;SDS011;21656;46.054;13.614;2022-10-17T08:30:34;35.28;;;20.65;;
35552;SDS011;21656;46.054;13.614;2022-10-17T08:33:00;35.65;;;20.80;;
35552;SDS011;21656;46.054;13.614;2022-10-17T08:35:25;37.17;;;22.30;;
35552;SDS011;21656;46.054;13.614;2022-10-17T08:37:51;36.60;;;22.33;;
35552;SDS011;21656;46.054;13.614;2022-10-17T08:40:20;38.90;;;21.85;;
35552;SDS011;21656;46.054;13.614;2022-10-17T08:48:04;36.58;;;21.30;;
35552;SDS011;21656;46.054;13.614;2022-10-17T08:50:38;34.25;;;20.83;;
35552;SDS011;21656;46.054;13.614;2022-10-17T08:53:10;39.50;;;22.70;;
35552;SDS011;21656;46.054;13.614;2022-10-17T08:55:45;34.85;;;21.25;;
35552;SDS011;21656;46.054;13.614;2022-10-17T08:58:20;32.55;;;20.67;;
35552;SDS011;21656;46.054;13.614;2022-10-17T09:03:33;34.50;;;20.90;;
35552;SDS011;21656;46.054;13.614;2022-10-17T09:06:08;36.03;;;20.83;;
35552;SDS011;21656;46.054;13.614;2022-10-17T09:08:42;36.00;;;21.80;;
35552;SDS011;21656;46.054;13.614;2022-10-17T09:21:59;33.00;;;19.85;;
35552;SDS011;21656;46.054;13.614;2022-10-17T09:30:22;28.02;;;17.67;;
35552;SDS011;21656;46.054;13.614;2022-10-17T09:32:53;34.88;;;20.63;;
35552;SDS011;21656;46.054;13.614;2022-10-17T09:35:18;40.10;;;20.13;;
35552;SDS011;21656;46.054;13.614;2022-10-17T09:37:46;39.22;;;21.10;;
35552;SDS011;21656;46.054;13.614;2022-10-17T09:40:27;32.63;;;20.80;;
35552;SDS011;21656;46.054;13.614;2022-10-17T09:42:56;37.63;;;21.60;;
35552;SDS011;21656;46.054;13.614;2022-10-17T09:45:25;30.27;;;17.85;;
35552;SDS011;21656;46.054;13.614;2022-10-17T09:50:29;35.55;;;20.10;;
35552;SDS011;21656;46.054;13.614;2022-10-17T09:52:58;34.47;;;20.23;;
35552;SDS011;21656;46.054;13.614;2022-10-17T09:55:36;32.53;;;19.20;;
35552;SDS011;21656;46.054;13.614;2022-10-17T09:58:06;32.50;;;19.65;;
35552;SDS011;21656;46.054;13.614;2022-10-17T10:00:34;30.95;;;19.95;;
35552;SDS011;21656;46.054;13.614;2022-10-17T10:06:03;30.05;;;18.58;;
35552;SDS011;21656;46.054;13.614;2022-10-17T10:08:34;29.13;;;18.45;;
35552;SDS011;21656;46.054;13.614;2022-10-17T10:11:03;31.85;;;18.15;;
35552;SDS011;21656;46.054;13.614;2022-10-17T10:13:31;34.47;;;19.90;;
35552;SDS011;21656;46.054;13.614;2022-10-17T10:16:31;35.85;;;19.25;;
35552;SDS011;21656;46.054;13.614;2022-10-17T10:18:57;29.20;;;18.35;;
35552;SDS011;21656;46.054;13.614;2022-10-17T10:21:23;27.15;;;17.42;;
35552;SDS011;21656;46.054;13.614;2022-10-17T10:24:02;31.63;;;19.13;;
35552;SDS011;21656;46.054;13.614;2022-10-17T10:29:03;28.40;;;17.50;;
35552;SDS011;21656;46.054;13.614;2022-10-17T10:31:41;30.83;;;17.42;;
35552;SDS011;21656;46.054;13.614;2022-10-17T10:34:12;25.77;;;17.08;;
35552;SDS011;21656;46.054;13.614;2022-10-17T10:36:44;26.25;;;17.17;;
35552;SDS011;21656;46.054;13.614;2022-10-17T10:39:33;31.13;;;17.65;;
35552;SDS011;21656;46.054;13.614;2022-10-17T10:42:05;25.67;;;17.38;;
35552;SDS011;21656;46.054;13.614;2022-10-17T10:44:32;34.13;;;18.42;;
35552;SDS011;21656;46.054;13.614;2022-10-17T10:49:49;27.52;;;17.00;;
35552;SDS011;21656;46.054;13.614;2022-10-17T10:52:37;26.05;;;16.83;;
35552;SDS011;21656;46.054;13.614;2022-10-17T10:55:28;27.20;;;16.50;;
35552;SDS011;21656;46.054;13.614;2022-10-17T10:58:00;21.75;;;15.30;;
35552;SDS011;21656;46.054;13.614;2022-10-17T11:00:36;25.63;;;16.17;;
35552;SDS011;21656;46.054;13.614;2022-10-17T11:03:08;25.85;;;16.38;;
35552;SDS011;21656;46.054;13.614;2022-10-17T11:05:43;28.83;;;16.83;;
35552;SDS011;21656;46.054;13.614;2022-10-17T11:16:36;29.10;;;14.88;;
35552;SDS011;21656;46.054;13.614;2022-10-17T11:19:55;26.48;;;15.20;;
35552;SDS011;21656;46.054;13.614;2022-10-17T11:24:58;22.45;;;15.32;;
35552;SDS011;21656;46.054;13.614;2022-10-17T11:27:29;21.70;;;13.70;;
35552;SDS011;21656;46.054;13.614;2022-10-17T11:29:57;20.90;;;14.15;;
35552;SDS011;21656;46.054;13.614;2022-10-17T11:32:26;19.98;;;13.75;;
35552;SDS011;21656;46.054;13.614;2022-10-17T11:35:03;22.55;;;14.05;;
35552;SDS011;21656;46.054;13.614;2022-10-17T11:37:33;18.30;;;13.30;;
35552;SDS011;21656;46.054;13.614;2022-10-17T11:45:24;20.13;;;13.15;;
35552;SDS011;21656;46.054;13.614;2022-10-17T11:48:12;19.95;;;14.63;;
35552;SDS011;21656;46.054;13.614;2022-10-17T11:51:07;22.80;;;14.55;;
35552;SDS011;21656;46.054;13.614;2022-10-17T11:54:08;22.60;;;14.75;;
35552;SDS011;21656;46.054;13.614;2022-10-17T11:59:09;19.48;;;13.98;;
35552;SDS011;21656;46.054;13.614;2022-10-17T12:01:46;20.95;;;14.65;;
35552;SDS011;21656;46.054;13.614;2022-10-17T12:04:32;26.38;;;14.38;;
35552;SDS011;21656;46.054;13.614;2022-10-17T12:07:26;22.15;;;14.00;;
35552;SDS011;21656;46.054;13.614;2022-10-17T12:15:54;20.23;;;14.00;;
35552;SDS011;21656;46.054;13.614;2022-10-17T12:18:22;22.20;;;13.63;;
35552;SDS011;21656;46.054;13.614;2022-10-17T12:20:56;18.33;;;13.48;;
35552;SDS011;21656;46.054;13.614;2022-10-17T12:23:26;18.15;;;13.18;;
35552;SDS011;21656;46.054;13.614;2022-10-17T12:28:32;18.50;;;12.77;;
35552;SDS011;21656;46.054;13.614;2022-10-17T12:31:10;17.67;;;12.65;;
35552;SDS011;21656;46.054;13.614;2022-10-17T12:36:41;16.85;;;12.27;;
35552;SDS011;21656;46.054;13.614;2022-10-17T12:46:50;21.08;;;13.57;;
35552;SDS011;21656;46.054;13.614;2022-10-17T12:54:45;22.30;;;12.98;;
35552;SDS011;21656;46.054;13.614;2022-10-17T12:59:55;23.10;;;13.05;;
35552;SDS011;21656;46.054;13.614;2022-10-17T13:02:22;17.92;;;12.52;;
35552;SDS011;21656;46.054;13.614;2022-10-17T13:04:52;19.00;;;12.73;;
35552;SDS011;21656;46.054;13.614;2022-10-17T13:07:27;19.25;;;13.05;;
35552;SDS011;21656;46.054;13.614;2022-10-17T13:09:55;22.52;;;12.52;;
35552;SDS011;21656;46.054;13.614;2022-10-17T13:12:22;17.30;;;13.15;;
35552;SDS011;21656;46.054;13.614;2022-10-17T13:14:52;19.45;;;12.93;;
35552;SDS011;21656;46.054;13.614;2022-10-17T13:17:26;23.30;;;14.40;;
35552;SDS011;21656;46.054;13.614;2022-10-17T13:19:55;19.65;;;13.63;;
35552;SDS011;21656;46.054;13.614;2022-10-17T13:22:22;22.02;;;12.80;;
35552;SDS011;21656;46.054;13.614;2022-10-17T13:24:50;18.67;;;13.48;;
35552;SDS011;21656;46.054;13.614;2022-10-17T13:29:57;19.80;;;13.35;;
35552;SDS011;21656;46.054;13.614;2022-10-17T13:32:25;18.80;;;13.55;;
35552;SDS011;21656;46.054;13.614;2022-10-17T13:35:05;18.98;;;13.27;;
35552;SDS011;21656;46.054;13.614;2022-10-17T13:37:31;21.58;;;13.90;;
35552;SDS011;21656;46.054;13.614;2022-10-17T13:39:58;19.95;;;12.70;;
35552;SDS011;21656;46.054;13.614;2022-10-17T13:42:28;23.90;;;14.02;;
35552;SDS011;21656;46.054;13.614;2022-10-17T13:45:00;19.42;;;12.93;;
35552;SDS011;21656;46.054;13.614;2022-10-17T13:47:27;18.30;;;13.05;;
35552;SDS011;21656;46.054;13.614;2022-10-17T13:49:57;22.42;;;13.80;;
35552;SDS011;21656;46.054;13.614;2022-10-17T13:52:24;20.73;;;13.82;;
35552;SDS011;21656;46.054;13.614;2022-10-17T13:54:52;17.85;;;12.90;;
35552;SDS011;21656;46.054;13.614;2022-10-17T13:57:28;23.23;;;13.07;;
35552;SDS011;21656;46.054;13.614;2022-10-17T13:59:58;22.02;;;14.35;;
35552;SDS011;21656;46.054;13.614;2022-10-17T14:02:29;19.23;;;14.32;;
35552;SDS011;21656;46.054;13.614;2022-10-17T14:05:02;19.15;;;13.95;;
35552;SDS011;21656;46.054;13.614;2022-10-17T14:07:45;17.52;;;12.93;;
35552;SDS011;21656;46.054;13.614;2022-10-17T14:10:23;18.77;;;12.73;;
35552;SDS011;21656;46.054;13.614;2022-10-17T14:12:51;21.13;;;12.93;;
35552;SDS011;21656;46.054;13.614;2022-10-17T14:15:20;21.35;;;14.63;;
35552;SDS011;21656;46.054;13.614;2022-10-17T14:17:55;22.08;;;13.90;;
35552;SDS011;21656;46.054;13.614;2022-10-17T14:20:23;22.07;;;15.63;;
35552;SDS011;21656;46.054;13.614;2022-10-17T14:22:49;24.50;;;16.67;;
35552;SDS011;21656;46.054;13.614;2022-10-17T14:28:02;22.15;;;13.98;;
35552;SDS011;21656;46.054;13.614;2022-10-17T14:30:38;25.88;;;16.23;;
35552;SDS011;21656;46.054;13.614;2022-10-17T14:33:05;22.35;;;14.15;;
35552;SDS011;21656;46.054;13.614;2022-10-17T14:35:35;23.98;;;14.90;;
35552;SDS011;21656;46.054;13.614;2022-10-17T14:38:02;22.25;;;14.93;;
35552;SDS011;21656;46.054;13.614;2022-10-17T14:40:30;20.27;;;15.35;;
35552;SDS011;21656;46.054;13.614;2022-10-17T14:42:58;22.15;;;15.23;;
35552;SDS011;21656;46.054;13.614;2022-10-17T14:45:28;21.88;;;15.25;;
35552;SDS011;21656;46.054;13.614;2022-10-17T14:47:58;24.63;;;16.55;;
35552;SDS011;21656;46.054;13.614;2022-10-17T14:50:27;22.35;;;15.82;;
35552;SDS011;21656;46.054;13.614;2022-10-17T14:55:37;27.90;;;16.67;;
35552;SDS011;21656;46.054;13.614;2022-10-17T15:00:53;25.48;;;16.42;;
35552;SDS011;21656;46.054;13.614;2022-10-17T15:03:19;33.05;;;17.15;;
35552;SDS011;21656;46.054;13.614;2022-10-17T15:05:46;27.88;;;16.65;;
35552;SDS011;21656;46.054;13.614;2022-10-17T15:08:13;23.83;;;16.88;;
35552;SDS011;21656;46.054;13.614;2022-10-17T15:10:39;27.25;;;15.43;;
35552;SDS011;21656;46.054;13.614;2022-10-17T15:13:06;34.13;;;17.05;;
35552;SDS011;21656;46.054;13.614;2022-10-17T15:15:32;22.50;;;15.25;;
35552;SDS011;21656;46.054;13.614;2022-10-17T15:17:58;23.55;;;14.82;;
35552;SDS011;21656;46.054;13.614;2022-10-17T15:20:24;29.45;;;16.75;;
35552;SDS011;21656;46.054;13.614;2022-10-17T15:22:55;25.77;;;16.67;;
35552;SDS011;21656;46.054;13.614;2022-10-17T15:25:22;27.15;;;17.33;;
35552;SDS011;21656;46.054;13.614;2022-10-17T15:27:49;32.00;;;17.42;;
35552;SDS011;21656;46.054;13.614;2022-10-17T15:30:20;29.42;;;16.65;;
35552;SDS011;21656;46.054;13.614;2022-10-17T15:32:50;26.63;;;16.33;;
35552;SDS011;21656;46.054;13.614;2022-10-17T15:35:17;25.83;;;17.48;;
35552;SDS011;21656;46.054;13.614;2022-10-17T15:37:43;36.42;;;18.63;;
35552;SDS011;21656;46.054;13.614;2022-10-17T15:40:17;33.55;;;18.17;;
35552;SDS011;21656;46.054;13.614;2022-10-17T15:42:48;27.80;;;17.80;;
35552;SDS011;21656;46.054;13.614;2022-10-17T15:45:17;34.53;;;18.63;;
35552;SDS011;21656;46.054;13.614;2022-10-17T15:47:48;27.48;;;17.42;;
35552;SDS011;21656;46.054;13.614;2022-10-17T15:50:16;29.20;;;16.95;;
35552;SDS011;21656;46.054;13.614;2022-10-17T15:52:42;36.35;;;17.98;;
35552;SDS011;21656;46.054;13.614;2022-10-17T15:55:08;36.38;;;17.98;;
35552;SDS011;21656;46.054;13.614;2022-10-17T15:57:38;32.97;;;19.02;;
35552;SDS011;21656;46.054;13.614;2022-10-17T16:00:06;41.25;;;19.35;;
35552;SDS011;21656;46.054;13.614;2022-10-17T16:05:08;40.20;;;19.23;;
35552;SDS011;21656;46.054;13.614;2022-10-17T16:07:38;34.00;;;19.65;;
35552;SDS011;21656;46.054;13.614;2022-10-17T16:10:04;34.78;;;19.50;;
35552;SDS011;21656;46.054;13.614;2022-10-17T16:12:30;39.65;;;19.00;;
35552;SDS011;21656;46.054;13.614;2022-10-17T16:15:00;44.00;;;19.20;;
35552;SDS011;21656;46.054;13.614;2022-10-17T16:17:26;38.28;;;20.95;;
35552;SDS011;21656;46.054;13.614;2022-10-17T16:19:51;37.85;;;20.52;;
35552;SDS011;21656;46.054;13.614;2022-10-17T16:22:25;32.40;;;20.65;;
35552;SDS011;21656;46.054;13.614;2022-10-17T16:25:02;32.13;;;20.15;;
35552;SDS011;21656;46.054;13.614;2022-10-17T16:27:35;33.47;;;19.50;;
35552;SDS011;21656;46.054;13.614;2022-10-17T16:30:05;38.92;;;21.98;;
35552;SDS011;21656;46.054;13.614;2022-10-17T16:32:32;41.88;;;20.27;;
35552;SDS011;21656;46.054;13.614;2022-10-17T16:34:59;34.10;;;19.98;;
35552;SDS011;21656;46.054;13.614;2022-10-17T16:37:25;34.42;;;20.73;;